Flight Track Log - Related Links

Times and Time Zones

All times are in EDT time to prevent confusion due to time zone crossing. See the ASQ5315 flight status page for this flight to view local times or setup timezone preferences in your user account.

Time Position Orientation Groundspeed Altitude Reporting Facility
EDT Latitude Longitude Course Direction KTS MPH feet Rate Location/Type
Fri 12:02:56 PM 32.3033 -86.2258 55° Northeast 231 266 5,900  Level Atlanta Center
Fri 12:03:56 PM 32.3133 -86.1353 83° East 253 291 7,900 2,200 Climbing Atlanta Center
Fri 12:04:56 PM 32.3503 -86.0453 64° Northeast 272 313 10,300 2,050 Climbing Atlanta Center
Fri 12:05:56 PM 32.4119 -85.9703 46° Northeast 295 339 12,000 1,450 Climbing Atlanta Center
Fri 12:06:56 PM 32.4822 -85.8856 45° Northeast 326 375 13,200 1,450 Climbing Atlanta Center
Fri 12:07:00 PM 32.5704 -85.9384 55° Northeast  Level FlightAware Approximate
Fri 12:07:56 PM 32.5564 -85.7961 45° Northeast 356 410 14,900  Level Atlanta Center
Fri 12:08:00 PM 32.6152 -85.8635 55° Northeast  Level FlightAware Approximate
Fri 12:08:56 PM 32.6372 -85.7014 45° Northeast 378 435 15,000  Level Atlanta Center
Fri 12:09:56 PM 32.7219 -85.6017 45° Northeast 406 467 15,000  Level Atlanta Center
Fri 12:10:56 PM 32.7611 -85.4714 70° East 414 476 15,000  Level Atlanta Center
Fri 12:11:56 PM 32.7667 -85.3381 87° East 398 458 15,000  Level Atlanta Center
Fri 12:12:56 PM 32.7908 -85.2200 76° East 385 443 15,000 -350 Level Atlanta Center
Fri 12:13:56 PM 32.8769 -85.1592 31° Northeast 333 383 14,300 -500 Descending Atlanta Center
Fri 12:14:56 PM 32.9775 -85.1158 20° North 326 375 14,000 -150 Descending Atlanta Center
Fri 12:15:56 PM 33.0739 -85.0775 18° North 338 389 14,000  Level Atlanta Center
Fri 12:16:56 PM 33.1661 -85.0389 19° North 353 406 14,000 -200 Level Atlanta Center
Fri 12:17:56 PM 33.2397 -84.9578 43° Northeast 353 406 13,600 1,500 Descending Atlanta Center
Fri 12:18:56 PM 33.3072 -84.8664 49° Northeast 353 406 17,000 1,700 Climbing Atlanta Center
Fri 12:19:56 PM 33.3725 -84.7825 47° Northeast 353 406 17,000 -3,913 Level Atlanta Center
Fri 12:20:28 PM 33.4000 -84.7333 56° Northeast 348 400 11,000 -4,186 Descending Atlanta TRACON
Fri 12:21:22 PM 33.4667 -84.6500 46° Northeast 315 362 11,000  Level Atlanta TRACON
Fri 12:22:28 PM 33.5167 -84.5833 48° Northeast 261 300 11,000 -190 Level Atlanta TRACON
Fri 12:23:28 PM 33.5500 -84.5167 59° Northeast 261 300 10,600 -1,200 Descending Atlanta TRACON
Fri 12:24:28 PM 33.5500 -84.4167 90° East 257 296 8,600 -1,895 Descending Atlanta TRACON
Fri 12:25:22 PM 33.5500 -84.3500 90° East 230 265 7,000 -2,000 Descending Atlanta TRACON
Fri 12:26:22 PM 33.5500 -84.2833 90° East 223 257 4,800 -1,900 Descending Atlanta TRACON
Fri 12:27:22 PM 33.5833 -84.2333 51° Northeast 211 243 3,200 -850 Descending Atlanta TRACON
Fri 12:28:22 PM 33.6167 -84.2667 320° Northwest 201 231 3,100 -316 Descending Atlanta TRACON
Fri 12:29:16 PM 33.6333 -84.3167 292° West 168 193 2,600 -684 Descending Atlanta TRACON
Fri 12:30:16 PM 33.6333 -84.3667 270° West 148 170 1,800 -800 Descending Atlanta TRACON
Fri 12:32:00 PM 33.6333 -84.4167 301° West  Level FlightAware Approximate
Fri 12:39:00 PM 33.6367 -84.4279 301° West  Level Estimated
Fri 12:40:00 PM 33.6367 -84.4279 301° West  Level Estimated

Login

Don't have an account? Register now (free) for customized features, flight alerts, and more!